Terminal Aerodrome Forecast
Issued by NWS Cleveland, OH

Home | Current Version | Previous Version | Text Only | Print | Product List | Glossary On
Versions: 1 2 3 4 5 6 7 8 9 10 11 12 13 14 15 16 17 18 19 20 21 22 23 24 25 26 27 28 29 30 31 32 33
000
FTUS41 KCLE 192300
TAFCLE
TAF
KCLE 192328Z 2000/2106 19008KT P6SM -SHRA VCTS OVC050CB
     FM200100 18004KT P6SM OVC050
      TEMPO 2001/2003 30015G30KT 2SM TSRA BR BKN025CB
     FM200300 18004KT 5SM -SHRA BR OVC035
     FM200500 18004KT 3SM BR BKN050
     FM201300 23006KT P6SM BKN100
     FM201800 25010KT P6SM BKN040=

USA.gov is the U.S. government's official web portal to all federal, state and local government web resources and services.